sensor_id;sensor_type;location;lat;lon;timestamp;P1;durP1;ratioP1;P2;durP2;ratioP2
3995;SDS011;2012;49.794;9.722;2023-04-07T00:01:38;2266.67;;;999.90;;
3995;SDS011;2012;49.794;9.722;2023-04-07T00:04:05;2266.67;;;999.90;;
3995;SDS011;2012;49.794;9.722;2023-04-07T00:06:32;2266.67;;;999.90;;
3995;SDS011;2012;49.794;9.722;2023-04-07T00:08:59;2266.67;;;999.90;;
3995;SDS011;2012;49.794;9.722;2023-04-07T00:11:26;2266.67;;;999.90;;
3995;SDS011;2012;49.794;9.722;2023-04-07T00:13:53;2266.67;;;999.90;;
3995;SDS011;2012;49.794;9.722;2023-04-07T00:16:21;2266.67;;;999.90;;
3995;SDS011;2012;49.794;9.722;2023-04-07T00:18:48;2266.67;;;999.90;;
3995;SDS011;2012;49.794;9.722;2023-04-07T00:21:15;2266.67;;;999.90;;
3995;SDS011;2012;49.794;9.722;2023-04-07T00:23:42;2266.67;;;999.90;;
3995;SDS011;2012;49.794;9.722;2023-04-07T00:26:09;2266.67;;;999.90;;
3995;SDS011;2012;49.794;9.722;2023-04-07T00:28:37;2266.67;;;999.90;;
3995;SDS011;2012;49.794;9.722;2023-04-07T00:31:04;2266.67;;;999.90;;
3995;SDS011;2012;49.794;9.722;2023-04-07T00:33:31;2266.67;;;999.90;;
3995;SDS011;2012;49.794;9.722;2023-04-07T00:35:58;2266.67;;;999.90;;
3995;SDS011;2012;49.794;9.722;2023-04-07T00:38:25;2266.67;;;999.90;;
3995;SDS011;2012;49.794;9.722;2023-04-07T00:40:58;2266.67;;;999.90;;
3995;SDS011;2012;49.794;9.722;2023-04-07T00:43:25;2266.67;;;999.90;;
3995;SDS011;2012;49.794;9.722;2023-04-07T00:45:53;2266.67;;;999.90;;
3995;SDS011;2012;49.794;9.722;2023-04-07T00:48:20;2266.67;;;999.90;;
3995;SDS011;2012;49.794;9.722;2023-04-07T00:50:47;2266.67;;;999.90;;
3995;SDS011;2012;49.794;9.722;2023-04-07T00:53:14;2266.67;;;999.90;;
3995;SDS011;2012;49.794;9.722;2023-04-07T00:55:41;2266.67;;;999.90;;
3995;SDS011;2012;49.794;9.722;2023-04-07T00:58:08;2266.67;;;999.90;;
3995;SDS011;2012;49.794;9.722;2023-04-07T01:00:53;2266.67;;;999.90;;
3995;SDS011;2012;49.794;9.722;2023-04-07T01:03:30;2266.67;;;999.90;;
3995;SDS011;2012;49.794;9.722;2023-04-07T01:06:02;2266.67;;;999.90;;
3995;SDS011;2012;49.794;9.722;2023-04-07T01:08:41;2266.67;;;999.90;;
3995;SDS011;2012;49.794;9.722;2023-04-07T01:13:52;2266.67;;;999.90;;
3995;SDS011;2012;49.794;9.722;2023-04-07T01:16:30;2266.67;;;999.90;;
3995;SDS011;2012;49.794;9.722;2023-04-07T01:19:00;2266.67;;;999.90;;
3995;SDS011;2012;49.794;9.722;2023-04-07T01:21:42;2266.67;;;999.90;;
3995;SDS011;2012;49.794;9.722;2023-04-07T01:26:59;2266.67;;;999.90;;
3995;SDS011;2012;49.794;9.722;2023-04-07T01:29:41;2266.67;;;999.90;;
3995;SDS011;2012;49.794;9.722;2023-04-07T01:32:13;2266.67;;;999.90;;
3995;SDS011;2012;49.794;9.722;2023-04-07T01:34:43;2266.67;;;999.90;;
3995;SDS011;2012;49.794;9.722;2023-04-07T01:37:13;2266.67;;;999.90;;
3995;SDS011;2012;49.794;9.722;2023-04-07T01:39:41;2266.67;;;999.90;;
3995;SDS011;2012;49.794;9.722;2023-04-07T01:42:08;2266.67;;;999.90;;
3995;SDS011;2012;49.794;9.722;2023-04-07T01:44:36;2266.67;;;999.90;;
3995;SDS011;2012;49.794;9.722;2023-04-07T01:47:04;2266.67;;;999.90;;
3995;SDS011;2012;49.794;9.722;2023-04-07T01:49:31;2266.67;;;999.90;;
3995;SDS011;2012;49.794;9.722;2023-04-07T01:52:00;2266.67;;;999.90;;
3995;SDS011;2012;49.794;9.722;2023-04-07T01:54:28;2266.67;;;999.90;;
3995;SDS011;2012;49.794;9.722;2023-04-07T01:56:56;2266.67;;;999.90;;
3995;SDS011;2012;49.794;9.722;2023-04-07T01:59:24;2266.67;;;999.90;;
3995;SDS011;2012;49.794;9.722;2023-04-07T02:01:52;2266.67;;;999.90;;
3995;SDS011;2012;49.794;9.722;2023-04-07T02:07:30;2266.67;;;999.90;;
3995;SDS011;2012;49.794;9.722;2023-04-07T02:10:04;2266.67;;;999.90;;
3995;SDS011;2012;49.794;9.722;2023-04-07T02:12:33;2266.67;;;999.90;;
3995;SDS011;2012;49.794;9.722;2023-04-07T02:15:11;2266.67;;;999.90;;
3995;SDS011;2012;49.794;9.722;2023-04-07T02:17:42;2266.67;;;999.90;;
3995;SDS011;2012;49.794;9.722;2023-04-07T02:20:13;2266.67;;;999.90;;
3995;SDS011;2012;49.794;9.722;2023-04-07T02:22:41;2266.67;;;999.90;;
3995;SDS011;2012;49.794;9.722;2023-04-07T02:25:26;2266.67;;;999.90;;
3995;SDS011;2012;49.794;9.722;2023-04-07T02:27:57;2266.67;;;999.90;;
3995;SDS011;2012;49.794;9.722;2023-04-07T02:30:25;2266.67;;;999.90;;
3995;SDS011;2012;49.794;9.722;2023-04-07T02:32:54;2266.67;;;999.90;;
3995;SDS011;2012;49.794;9.722;2023-04-07T02:35:21;2266.67;;;999.90;;
3995;SDS011;2012;49.794;9.722;2023-04-07T02:37:48;2266.67;;;999.90;;
3995;SDS011;2012;49.794;9.722;2023-04-07T02:40:16;2266.67;;;999.90;;
3995;SDS011;2012;49.794;9.722;2023-04-07T02:42:43;2266.67;;;999.90;;
3995;SDS011;2012;49.794;9.722;2023-04-07T02:45:10;2266.67;;;999.90;;
3995;SDS011;2012;49.794;9.722;2023-04-07T02:47:37;2266.67;;;999.90;;
3995;SDS011;2012;49.794;9.722;2023-04-07T02:50:04;2266.67;;;999.90;;
3995;SDS011;2012;49.794;9.722;2023-04-07T02:52:34;2266.67;;;999.90;;
3995;SDS011;2012;49.794;9.722;2023-04-07T02:55:04;2266.67;;;999.90;;
3995;SDS011;2012;49.794;9.722;2023-04-07T02:57:33;2266.67;;;999.90;;
3995;SDS011;2012;49.794;9.722;2023-04-07T03:00:02;2266.67;;;999.90;;
3995;SDS011;2012;49.794;9.722;2023-04-07T03:02:46;2266.67;;;999.90;;
3995;SDS011;2012;49.794;9.722;2023-04-07T03:05:14;2266.67;;;999.90;;
3995;SDS011;2012;49.794;9.722;2023-04-07T03:07:40;2266.67;;;999.90;;
3995;SDS011;2012;49.794;9.722;2023-04-07T03:10:08;2266.67;;;999.90;;
3995;SDS011;2012;49.794;9.722;2023-04-07T03:12:36;2266.67;;;999.90;;
3995;SDS011;2012;49.794;9.722;2023-04-07T03:15:03;2266.67;;;999.90;;
3995;SDS011;2012;49.794;9.722;2023-04-07T03:17:31;2266.67;;;999.90;;
3995;SDS011;2012;49.794;9.722;2023-04-07T03:19:59;2266.67;;;999.90;;
3995;SDS011;2012;49.794;9.722;2023-04-07T03:22:26;2266.67;;;999.90;;
3995;SDS011;2012;49.794;9.722;2023-04-07T03:24:53;2266.67;;;999.90;;
3995;SDS011;2012;49.794;9.722;2023-04-07T03:27:22;2266.67;;;999.90;;
3995;SDS011;2012;49.794;9.722;2023-04-07T03:29:49;2266.67;;;999.90;;
3995;SDS011;2012;49.794;9.722;2023-04-07T03:32:19;2266.67;;;999.90;;
3995;SDS011;2012;49.794;9.722;2023-04-07T03:34:47;2266.67;;;999.90;;
3995;SDS011;2012;49.794;9.722;2023-04-07T03:37:14;2266.67;;;999.90;;
3995;SDS011;2012;49.794;9.722;2023-04-07T03:39:42;2266.67;;;999.90;;
3995;SDS011;2012;49.794;9.722;2023-04-07T03:42:22;2266.67;;;999.90;;
3995;SDS011;2012;49.794;9.722;2023-04-07T03:44:55;2266.67;;;999.90;;
3995;SDS011;2012;49.794;9.722;2023-04-07T03:47:22;2266.67;;;999.90;;
3995;SDS011;2012;49.794;9.722;2023-04-07T03:49:54;2266.67;;;999.90;;
3995;SDS011;2012;49.794;9.722;2023-04-07T03:52:21;2266.67;;;999.90;;
3995;SDS011;2012;49.794;9.722;2023-04-07T03:54:52;2266.67;;;999.90;;
3995;SDS011;2012;49.794;9.722;2023-04-07T03:57:23;2266.67;;;999.90;;
3995;SDS011;2012;49.794;9.722;2023-04-07T03:59:50;2266.67;;;999.90;;
3995;SDS011;2012;49.794;9.722;2023-04-07T04:02:17;2266.67;;;999.90;;
3995;SDS011;2012;49.794;9.722;2023-04-07T04:04:49;2266.67;;;999.90;;
3995;SDS011;2012;49.794;9.722;2023-04-07T04:07:16;2266.67;;;999.90;;
3995;SDS011;2012;49.794;9.722;2023-04-07T04:09:47;2266.67;;;999.90;;
3995;SDS011;2012;49.794;9.722;2023-04-07T04:12:14;2266.67;;;999.90;;
3995;SDS011;2012;49.794;9.722;2023-04-07T04:14:50;2266.67;;;999.90;;
3995;SDS011;2012;49.794;9.722;2023-04-07T04:17:17;2266.67;;;999.90;;
3995;SDS011;2012;49.794;9.722;2023-04-07T04:19:45;2266.67;;;999.90;;
3995;SDS011;2012;49.794;9.722;2023-04-07T04:22:20;2266.67;;;999.90;;
3995;SDS011;2012;49.794;9.722;2023-04-07T04:24:51;2266.67;;;999.90;;
3995;SDS011;2012;49.794;9.722;2023-04-07T04:27:19;2266.67;;;999.90;;
3995;SDS011;2012;49.794;9.722;2023-04-07T04:29:51;2266.67;;;999.90;;
3995;SDS011;2012;49.794;9.722;2023-04-07T04:32:28;2266.67;;;999.90;;
3995;SDS011;2012;49.794;9.722;2023-04-07T04:34:55;2266.67;;;999.90;;
3995;SDS011;2012;49.794;9.722;2023-04-07T04:37:23;2266.67;;;999.90;;
3995;SDS011;2012;49.794;9.722;2023-04-07T04:39:51;2266.67;;;999.90;;
3995;SDS011;2012;49.794;9.722;2023-04-07T04:42:20;2266.67;;;999.90;;
3995;SDS011;2012;49.794;9.722;2023-04-07T04:44:47;2266.67;;;999.90;;
3995;SDS011;2012;49.794;9.722;2023-04-07T04:47:15;2266.67;;;999.90;;
3995;SDS011;2012;49.794;9.722;2023-04-07T04:49:43;2266.67;;;999.90;;
3995;SDS011;2012;49.794;9.722;2023-04-07T04:52:11;2266.67;;;999.90;;
3995;SDS011;2012;49.794;9.722;2023-04-07T04:54:41;2266.67;;;999.90;;
3995;SDS011;2012;49.794;9.722;2023-04-07T04:57:09;2266.67;;;999.90;;
3995;SDS011;2012;49.794;9.722;2023-04-07T04:59:37;2266.67;;;999.90;;
3995;SDS011;2012;49.794;9.722;2023-04-07T05:02:05;2266.67;;;999.90;;
3995;SDS011;2012;49.794;9.722;2023-04-07T05:04:31;2266.67;;;999.90;;
3995;SDS011;2012;49.794;9.722;2023-04-07T05:07:09;2266.67;;;999.90;;
3995;SDS011;2012;49.794;9.722;2023-04-07T05:09:36;2266.67;;;999.90;;
3995;SDS011;2012;49.794;9.722;2023-04-07T05:12:03;2266.67;;;999.90;;
3995;SDS011;2012;49.794;9.722;2023-04-07T05:14:35;2266.67;;;999.90;;
3995;SDS011;2012;49.794;9.722;2023-04-07T05:17:05;2266.67;;;999.90;;
3995;SDS011;2012;49.794;9.722;2023-04-07T05:19:32;2266.67;;;999.90;;
3995;SDS011;2012;49.794;9.722;2023-04-07T05:22:05;2266.67;;;999.90;;
3995;SDS011;2012;49.794;9.722;2023-04-07T05:24:40;2266.67;;;999.90;;
3995;SDS011;2012;49.794;9.722;2023-04-07T05:27:07;2266.67;;;999.90;;
3995;SDS011;2012;49.794;9.722;2023-04-07T05:29:35;2266.67;;;999.90;;
3995;SDS011;2012;49.794;9.722;2023-04-07T05:32:05;2266.67;;;999.90;;
3995;SDS011;2012;49.794;9.722;2023-04-07T05:34:32;2266.67;;;999.90;;
3995;SDS011;2012;49.794;9.722;2023-04-07T05:36:59;2266.67;;;999.90;;
3995;SDS011;2012;49.794;9.722;2023-04-07T05:39:26;2266.67;;;999.90;;
3995;SDS011;2012;49.794;9.722;2023-04-07T05:41:54;2266.67;;;999.90;;
3995;SDS011;2012;49.794;9.722;2023-04-07T05:44:25;2266.67;;;999.90;;
3995;SDS011;2012;49.794;9.722;2023-04-07T05:46:52;2266.67;;;999.90;;
3995;SDS011;2012;49.794;9.722;2023-04-07T05:49:21;2266.67;;;999.90;;
3995;SDS011;2012;49.794;9.722;2023-04-07T05:51:56;2266.67;;;999.90;;
3995;SDS011;2012;49.794;9.722;2023-04-07T05:54:23;2266.67;;;999.90;;
3995;SDS011;2012;49.794;9.722;2023-04-07T05:56:51;2266.67;;;999.90;;
3995;SDS011;2012;49.794;9.722;2023-04-07T05:59:19;2266.67;;;999.90;;
3995;SDS011;2012;49.794;9.722;2023-04-07T06:01:46;2266.67;;;999.90;;
3995;SDS011;2012;49.794;9.722;2023-04-07T06:04:14;2266.67;;;999.90;;
3995;SDS011;2012;49.794;9.722;2023-04-07T06:06:41;2266.67;;;999.90;;
3995;SDS011;2012;49.794;9.722;2023-04-07T06:09:07;2266.67;;;999.90;;
3995;SDS011;2012;49.794;9.722;2023-04-07T06:11:35;2266.67;;;999.90;;
3995;SDS011;2012;49.794;9.722;2023-04-07T06:14:02;2266.67;;;999.90;;
3995;SDS011;2012;49.794;9.722;2023-04-07T06:16:29;2266.67;;;999.90;;
3995;SDS011;2012;49.794;9.722;2023-04-07T06:18:56;2266.67;;;999.90;;
3995;SDS011;2012;49.794;9.722;2023-04-07T06:21:23;2266.67;;;999.90;;
3995;SDS011;2012;49.794;9.722;2023-04-07T06:23:52;2266.67;;;999.90;;
3995;SDS011;2012;49.794;9.722;2023-04-07T06:26:19;2266.67;;;999.90;;
3995;SDS011;2012;49.794;9.722;2023-04-07T06:28:48;2266.67;;;999.90;;
3995;SDS011;2012;49.794;9.722;2023-04-07T06:31:16;2266.67;;;999.90;;
3995;SDS011;2012;49.794;9.722;2023-04-07T06:33:44;2266.67;;;999.90;;
3995;SDS011;2012;49.794;9.722;2023-04-07T06:36:11;2266.67;;;999.90;;
3995;SDS011;2012;49.794;9.722;2023-04-07T06:38:38;2266.67;;;999.90;;
3995;SDS011;2012;49.794;9.722;2023-04-07T06:41:05;2266.67;;;999.90;;
3995;SDS011;2012;49.794;9.722;2023-04-07T06:43:33;2266.67;;;999.90;;
3995;SDS011;2012;49.794;9.722;2023-04-07T06:46:02;2266.67;;;999.90;;
3995;SDS011;2012;49.794;9.722;2023-04-07T06:48:29;2266.67;;;999.90;;
3995;SDS011;2012;49.794;9.722;2023-04-07T06:50:56;2266.67;;;999.90;;
3995;SDS011;2012;49.794;9.722;2023-04-07T06:53:22;2266.67;;;999.90;;
3995;SDS011;2012;49.794;9.722;2023-04-07T06:55:49;2266.67;;;999.90;;
3995;SDS011;2012;49.794;9.722;2023-04-07T06:58:16;2266.67;;;999.90;;
3995;SDS011;2012;49.794;9.722;2023-04-07T07:00:42;2266.67;;;999.90;;
3995;SDS011;2012;49.794;9.722;2023-04-07T07:03:09;2266.67;;;999.90;;
3995;SDS011;2012;49.794;9.722;2023-04-07T07:05:39;2266.67;;;999.90;;
3995;SDS011;2012;49.794;9.722;2023-04-07T07:08:06;2266.67;;;999.90;;
3995;SDS011;2012;49.794;9.722;2023-04-07T07:10:32;2266.67;;;999.90;;
3995;SDS011;2012;49.794;9.722;2023-04-07T07:12:59;2266.67;;;999.90;;
3995;SDS011;2012;49.794;9.722;2023-04-07T07:15:26;2266.67;;;999.90;;
3995;SDS011;2012;49.794;9.722;2023-04-07T07:17:53;2266.67;;;999.90;;
3995;SDS011;2012;49.794;9.722;2023-04-07T07:20:20;2266.67;;;999.90;;
3995;SDS011;2012;49.794;9.722;2023-04-07T07:22:48;2266.67;;;999.90;;
3995;SDS011;2012;49.794;9.722;2023-04-07T07:25:16;2266.67;;;999.90;;
3995;SDS011;2012;49.794;9.722;2023-04-07T07:27:42;2266.67;;;999.90;;
3995;SDS011;2012;49.794;9.722;2023-04-07T07:30:09;2266.67;;;999.90;;
3995;SDS011;2012;49.794;9.722;2023-04-07T07:32:36;2266.67;;;999.90;;
3995;SDS011;2012;49.794;9.722;2023-04-07T07:35:03;2266.67;;;999.90;;
3995;SDS011;2012;49.794;9.722;2023-04-07T07:37:30;2266.67;;;999.90;;
3995;SDS011;2012;49.794;9.722;2023-04-07T07:39:58;2266.67;;;999.90;;
3995;SDS011;2012;49.794;9.722;2023-04-07T07:42:25;2266.67;;;999.90;;
3995;SDS011;2012;49.794;9.722;2023-04-07T07:44:52;1552.27;;;691.30;;
3995;SDS011;2012;49.794;9.722;2023-04-07T07:47:20;22.50;;;14.80;;
3995;SDS011;2012;49.794;9.722;2023-04-07T07:49:47;23.70;;;14.73;;
3995;SDS011;2012;49.794;9.722;2023-04-07T07:52:14;18.47;;;13.87;;
3995;SDS011;2012;49.794;9.722;2023-04-07T07:54:41;20.70;;;14.70;;
3995;SDS011;2012;49.794;9.722;2023-04-07T07:57:08;22.47;;;14.47;;
3995;SDS011;2012;49.794;9.722;2023-04-07T07:59:35;20.47;;;13.47;;
3995;SDS011;2012;49.794;9.722;2023-04-07T08:02:02;18.07;;;14.30;;
3995;SDS011;2012;49.794;9.722;2023-04-07T08:04:28;21.97;;;14.63;;
3995;SDS011;2012;49.794;9.722;2023-04-07T08:06:55;20.57;;;14.13;;
3995;SDS011;2012;49.794;9.722;2023-04-07T08:09:23;20.67;;;13.73;;
3995;SDS011;2012;49.794;9.722;2023-04-07T08:11:51;18.33;;;13.67;;
3995;SDS011;2012;49.794;9.722;2023-04-07T08:14:18;20.10;;;14.47;;
3995;SDS011;2012;49.794;9.722;2023-04-07T08:16:45;19.83;;;13.80;;
3995;SDS011;2012;49.794;9.722;2023-04-07T08:19:12;17.80;;;13.17;;
3995;SDS011;2012;49.794;9.722;2023-04-07T08:21:39;17.50;;;13.80;;
3995;SDS011;2012;49.794;9.722;2023-04-07T08:24:07;16.73;;;13.37;;
3995;SDS011;2012;49.794;9.722;2023-04-07T08:26:35;20.63;;;12.43;;
3995;SDS011;2012;49.794;9.722;2023-04-07T08:29:02;23.60;;;14.00;;
3995;SDS011;2012;49.794;9.722;2023-04-07T08:31:28;20.70;;;14.33;;
3995;SDS011;2012;49.794;9.722;2023-04-07T08:33:55;22.03;;;15.10;;
3995;SDS011;2012;49.794;9.722;2023-04-07T08:36:25;18.77;;;13.23;;
3995;SDS011;2012;49.794;9.722;2023-04-07T08:38:53;18.93;;;13.73;;
3995;SDS011;2012;49.794;9.722;2023-04-07T08:41:29;18.90;;;13.70;;
3995;SDS011;2012;49.794;9.722;2023-04-07T08:44:02;21.67;;;15.83;;
3995;SDS011;2012;49.794;9.722;2023-04-07T08:46:29;21.10;;;14.93;;
3995;SDS011;2012;49.794;9.722;2023-04-07T08:48:57;20.53;;;14.30;;
3995;SDS011;2012;49.794;9.722;2023-04-07T08:51:28;19.77;;;14.33;;
3995;SDS011;2012;49.794;9.722;2023-04-07T08:53:59;19.33;;;14.23;;
3995;SDS011;2012;49.794;9.722;2023-04-07T08:56:38;24.40;;;14.13;;
3995;SDS011;2012;49.794;9.722;2023-04-07T08:59:13;17.00;;;13.00;;
3995;SDS011;2012;49.794;9.722;2023-04-07T09:01:41;17.97;;;12.70;;
3995;SDS011;2012;49.794;9.722;2023-04-07T09:04:08;20.83;;;13.90;;
3995;SDS011;2012;49.794;9.722;2023-04-07T09:06:36;19.33;;;14.80;;
3995;SDS011;2012;49.794;9.722;2023-04-07T09:09:03;17.83;;;12.90;;
3995;SDS011;2012;49.794;9.722;2023-04-07T09:11:37;16.77;;;13.57;;
3995;SDS011;2012;49.794;9.722;2023-04-07T09:14:05;19.47;;;13.50;;
3995;SDS011;2012;49.794;9.722;2023-04-07T09:16:33;24.93;;;15.53;;
3995;SDS011;2012;49.794;9.722;2023-04-07T09:19:00;15.60;;;11.90;;
3995;SDS011;2012;49.794;9.722;2023-04-07T09:21:31;17.17;;;12.37;;
3995;SDS011;2012;49.794;9.722;2023-04-07T09:24:20;16.63;;;11.70;;
3995;SDS011;2012;49.794;9.722;2023-04-07T09:26:48;18.53;;;12.37;;
3995;SDS011;2012;49.794;9.722;2023-04-07T09:29:17;18.00;;;12.57;;
3995;SDS011;2012;49.794;9.722;2023-04-07T09:31:47;16.00;;;11.97;;
3995;SDS011;2012;49.794;9.722;2023-04-07T09:34:28;16.10;;;11.93;;
3995;SDS011;2012;49.794;9.722;2023-04-07T09:36:56;17.47;;;11.47;;
3995;SDS011;2012;49.794;9.722;2023-04-07T09:39:24;15.93;;;11.57;;
3995;SDS011;2012;49.794;9.722;2023-04-07T09:41:51;22.13;;;12.77;;
3995;SDS011;2012;49.794;9.722;2023-04-07T09:44:19;19.10;;;13.80;;
3995;SDS011;2012;49.794;9.722;2023-04-07T09:46:47;21.17;;;14.13;;
3995;SDS011;2012;49.794;9.722;2023-04-07T09:49:22;18.03;;;13.70;;
3995;SDS011;2012;49.794;9.722;2023-04-07T09:57:18;17.20;;;13.47;;
3995;SDS011;2012;49.794;9.722;2023-04-07T09:59:46;16.83;;;12.90;;
3995;SDS011;2012;49.794;9.722;2023-04-07T10:02:15;18.50;;;14.00;;
3995;SDS011;2012;49.794;9.722;2023-04-07T10:04:42;19.90;;;15.20;;
3995;SDS011;2012;49.794;9.722;2023-04-07T10:07:09;15.83;;;12.73;;
3995;SDS011;2012;49.794;9.722;2023-04-07T10:09:36;19.30;;;13.17;;
3995;SDS011;2012;49.794;9.722;2023-04-07T10:12:03;18.20;;;13.73;;
3995;SDS011;2012;49.794;9.722;2023-04-07T10:14:32;18.63;;;13.37;;
3995;SDS011;2012;49.794;9.722;2023-04-07T10:17:00;19.20;;;13.17;;
3995;SDS011;2012;49.794;9.722;2023-04-07T10:19:32;16.00;;;13.10;;
3995;SDS011;2012;49.794;9.722;2023-04-07T10:22:01;16.93;;;13.93;;
3995;SDS011;2012;49.794;9.722;2023-04-07T10:27:43;16.13;;;13.03;;
3995;SDS011;2012;49.794;9.722;2023-04-07T10:30:21;19.17;;;14.27;;
3995;SDS011;2012;49.794;9.722;2023-04-07T10:32:51;18.77;;;13.40;;
3995;SDS011;2012;49.794;9.722;2023-04-07T10:35:19;16.20;;;12.83;;
3995;SDS011;2012;49.794;9.722;2023-04-07T10:40:32;15.90;;;12.37;;
3995;SDS011;2012;49.794;9.722;2023-04-07T10:43:00;16.87;;;11.50;;
3995;SDS011;2012;49.794;9.722;2023-04-07T10:48:14;16.00;;;11.47;;
3995;SDS011;2012;49.794;9.722;2023-04-07T10:50:43;12.87;;;10.40;;
3995;SDS011;2012;49.794;9.722;2023-04-07T10:53:11;13.13;;;10.00;;
3995;SDS011;2012;49.794;9.722;2023-04-07T10:55:45;16.00;;;11.03;;
3995;SDS011;2012;49.794;9.722;2023-04-07T11:03:33;13.40;;;10.60;;
3995;SDS011;2012;49.794;9.722;2023-04-07T11:06:10;16.67;;;11.70;;
3995;SDS011;2012;49.794;9.722;2023-04-07T11:08:41;14.00;;;10.23;;
3995;SDS011;2012;49.794;9.722;2023-04-07T11:11:15;15.13;;;10.90;;
3995;SDS011;2012;49.794;9.722;2023-04-07T11:13:47;12.37;;;10.57;;
3995;SDS011;2012;49.794;9.722;2023-04-07T11:16:16;14.10;;;10.63;;
3995;SDS011;2012;49.794;9.722;2023-04-07T11:18:44;12.10;;;10.07;;
3995;SDS011;2012;49.794;9.722;2023-04-07T11:21:16;15.77;;;11.20;;
3995;SDS011;2012;49.794;9.722;2023-04-07T11:23:45;14.67;;;9.90;;
3995;SDS011;2012;49.794;9.722;2023-04-07T11:26:13;13.93;;;10.20;;
3995;SDS011;2012;49.794;9.722;2023-04-07T11:28:44;12.77;;;9.73;;
3995;SDS011;2012;49.794;9.722;2023-04-07T11:31:28;12.07;;;9.57;;
3995;SDS011;2012;49.794;9.722;2023-04-07T11:34:00;11.80;;;8.53;;
3995;SDS011;2012;49.794;9.722;2023-04-07T11:38:59;12.80;;;9.90;;
3995;SDS011;2012;49.794;9.722;2023-04-07T11:41:28;12.37;;;9.00;;
3995;SDS011;2012;49.794;9.722;2023-04-07T11:44:10;11.97;;;10.50;;
3995;SDS011;2012;49.794;9.722;2023-04-07T11:49:23;11.83;;;9.60;;
3995;SDS011;2012;49.794;9.722;2023-04-07T11:51:57;14.20;;;10.70;;
3995;SDS011;2012;49.794;9.722;2023-04-07T11:54:43;12.73;;;10.60;;
3995;SDS011;2012;49.794;9.722;2023-04-07T11:57:12;15.10;;;10.60;;
3995;SDS011;2012;49.794;9.722;2023-04-07T11:59:39;14.23;;;10.87;;
3995;SDS011;2012;49.794;9.722;2023-04-07T12:02:06;14.50;;;10.10;;
3995;SDS011;2012;49.794;9.722;2023-04-07T12:04:34;13.60;;;9.13;;
3995;SDS011;2012;49.794;9.722;2023-04-07T12:07:06;12.30;;;8.93;;
3995;SDS011;2012;49.794;9.722;2023-04-07T12:09:35;14.93;;;9.27;;
3995;SDS011;2012;49.794;9.722;2023-04-07T12:12:04;16.47;;;10.73;;
3995;SDS011;2012;49.794;9.722;2023-04-07T12:14:33;12.40;;;9.70;;
3995;SDS011;2012;49.794;9.722;2023-04-07T12:17:01;16.83;;;10.40;;
3995;SDS011;2012;49.794;9.722;2023-04-07T12:19:29;10.60;;;8.50;;
3995;SDS011;2012;49.794;9.722;2023-04-07T12:22:01;10.87;;;8.50;;
3995;SDS011;2012;49.794;9.722;2023-04-07T12:24:28;12.87;;;9.67;;
3995;SDS011;2012;49.794;9.722;2023-04-07T12:26:57;14.43;;;10.27;;
3995;SDS011;2012;49.794;9.722;2023-04-07T12:29:25;11.80;;;9.50;;
3995;SDS011;2012;49.794;9.722;2023-04-07T12:31:52;10.17;;;8.33;;
3995;SDS011;2012;49.794;9.722;2023-04-07T12:34:18;12.27;;;8.27;;
3995;SDS011;2012;49.794;9.722;2023-04-07T12:36:45;10.13;;;8.73;;
3995;SDS011;2012;49.794;9.722;2023-04-07T12:39:13;13.73;;;8.27;;
3995;SDS011;2012;49.794;9.722;2023-04-07T12:41:40;8.87;;;7.90;;
3995;SDS011;2012;49.794;9.722;2023-04-07T12:44:08;10.27;;;8.00;;
3995;SDS011;2012;49.794;9.722;2023-04-07T12:46:35;11.63;;;8.10;;
3995;SDS011;2012;49.794;9.722;2023-04-07T12:49:01;11.00;;;8.30;;
3995;SDS011;2012;49.794;9.722;2023-04-07T12:51:29;9.87;;;7.53;;
3995;SDS011;2012;49.794;9.722;2023-04-07T12:53:58;10.47;;;8.30;;
3995;SDS011;2012;49.794;9.722;2023-04-07T12:56:28;11.60;;;7.90;;
3995;SDS011;2012;49.794;9.722;2023-04-07T12:58:56;12.17;;;7.80;;
3995;SDS011;2012;49.794;9.722;2023-04-07T13:01:23;14.37;;;7.13;;
3995;SDS011;2012;49.794;9.722;2023-04-07T13:03:50;12.77;;;8.17;;
3995;SDS011;2012;49.794;9.722;2023-04-07T13:06:17;13.47;;;7.70;;
3995;SDS011;2012;49.794;9.722;2023-04-07T13:08:44;8.40;;;6.57;;
3995;SDS011;2012;49.794;9.722;2023-04-07T13:11:11;10.13;;;6.60;;
3995;SDS011;2012;49.794;9.722;2023-04-07T13:13:38;7.10;;;6.40;;
3995;SDS011;2012;49.794;9.722;2023-04-07T13:16:05;8.80;;;7.10;;
3995;SDS011;2012;49.794;9.722;2023-04-07T13:18:32;11.07;;;6.10;;
3995;SDS011;2012;49.794;9.722;2023-04-07T13:20:58;9.67;;;7.37;;
3995;SDS011;2012;49.794;9.722;2023-04-07T13:23:45;10.83;;;6.63;;
3995;SDS011;2012;49.794;9.722;2023-04-07T13:26:13;10.23;;;6.97;;
3995;SDS011;2012;49.794;9.722;2023-04-07T13:28:40;9.33;;;6.63;;
3995;SDS011;2012;49.794;9.722;2023-04-07T13:31:08;8.70;;;5.97;;
3995;SDS011;2012;49.794;9.722;2023-04-07T13:33:37;10.07;;;6.73;;
3995;SDS011;2012;49.794;9.722;2023-04-07T13:36:03;8.30;;;6.53;;
3995;SDS011;2012;49.794;9.722;2023-04-07T13:38:31;14.80;;;6.37;;
3995;SDS011;2012;49.794;9.722;2023-04-07T13:40:57;8.30;;;6.07;;
3995;SDS011;2012;49.794;9.722;2023-04-07T13:43:24;9.03;;;5.77;;
3995;SDS011;2012;49.794;9.722;2023-04-07T13:45:51;625.03;;;276.00;;
3995;SDS011;2012;49.794;9.722;2023-04-07T13:48:18;2266.67;;;999.90;;
3995;SDS011;2012;49.794;9.722;2023-04-07T13:50:46;125.97;;;7.90;;
3995;SDS011;2012;49.794;9.722;2023-04-07T13:53:13;2266.67;;;999.90;;
3995;SDS011;2012;49.794;9.722;2023-04-07T13:55:43;2266.67;;;999.90;;
3995;SDS011;2012;49.794;9.722;2023-04-07T13:58:10;2266.67;;;999.90;;
3995;SDS011;2012;49.794;9.722;2023-04-07T14:00:37;2266.67;;;999.90;;
3995;SDS011;2012;49.794;9.722;2023-04-07T14:03:05;2266.67;;;999.90;;
3995;SDS011;2012;49.794;9.722;2023-04-07T14:05:33;2266.67;;;999.90;;
3995;SDS011;2012;49.794;9.722;2023-04-07T14:08:01;2266.67;;;999.90;;
3995;SDS011;2012;49.794;9.722;2023-04-07T14:10:30;2266.67;;;999.90;;
3995;SDS011;2012;49.794;9.722;2023-04-07T14:12:59;263.13;;;99.10;;
3995;SDS011;2012;49.794;9.722;2023-04-07T14:15:26;192.97;;;48.40;;
3995;SDS011;2012;49.794;9.722;2023-04-07T14:17:53;172.60;;;25.60;;
3995;SDS011;2012;49.794;9.722;2023-04-07T14:20:20;166.50;;;18.47;;
3995;SDS011;2012;49.794;9.722;2023-04-07T14:22:47;163.47;;;16.20;;
3995;SDS011;2012;49.794;9.722;2023-04-07T14:25:13;2266.67;;;999.90;;
3995;SDS011;2012;49.794;9.722;2023-04-07T14:27:40;2266.67;;;999.90;;
3995;SDS011;2012;49.794;9.722;2023-04-07T14:30:07;2266.67;;;999.90;;
3995;SDS011;2012;49.794;9.722;2023-04-07T14:32:34;182.47;;;27.57;;
3995;SDS011;2012;49.794;9.722;2023-04-07T14:35:01;174.63;;;17.50;;
3995;SDS011;2012;49.794;9.722;2023-04-07T14:37:28;173.97;;;16.80;;
3995;SDS011;2012;49.794;9.722;2023-04-07T14:39:55;173.67;;;16.80;;
3995;SDS011;2012;49.794;9.722;2023-04-07T14:42:28;173.17;;;16.30;;
3995;SDS011;2012;49.794;9.722;2023-04-07T14:44:56;173.27;;;16.67;;
3995;SDS011;2012;49.794;9.722;2023-04-07T14:47:24;172.67;;;15.57;;
3995;SDS011;2012;49.794;9.722;2023-04-07T14:49:51;173.20;;;15.43;;
3995;SDS011;2012;49.794;9.722;2023-04-07T14:52:19;173.27;;;16.30;;
3995;SDS011;2012;49.794;9.722;2023-04-07T14:54:47;172.50;;;15.90;;
3995;SDS011;2012;49.794;9.722;2023-04-07T14:57:14;172.67;;;15.97;;
3995;SDS011;2012;49.794;9.722;2023-04-07T14:59:42;173.67;;;16.30;;
3995;SDS011;2012;49.794;9.722;2023-04-07T15:02:09;172.97;;;15.83;;
3995;SDS011;2012;49.794;9.722;2023-04-07T15:04:36;173.97;;;16.47;;
3995;SDS011;2012;49.794;9.722;2023-04-07T15:07:04;174.07;;;16.83;;
3995;SDS011;2012;49.794;9.722;2023-04-07T15:09:31;173.67;;;16.70;;